Time;durP1;ratioP1;P1;durP2;ratioP2;P2;SDS_P1;SDS_P2;PMS_P1;PMS_P2;Temp;Humidity;BMP_temperature;BMP_pressure;BME280_temperature;BME280_humidity;BME280_pressure;Samples;Min_cycle;Max_cycle;Signal;HPM_P1;HPM_P2
2024/01/17 00:02:23;;;;;;;21.90;14.10;;;-2.50;99.90;;;;;;5071461;27;20218;-84
2024/01/17 00:04:52;;;;;;;20.90;14.63;;;-2.50;99.90;;;;;;5075252;27;20317;-83
2024/01/17 00:07:20;;;;;;;23.93;13.77;;;-2.50;99.90;;;;;;5075342;27;20219;-84
2024/01/17 00:09:48;;;;;;;20.70;14.07;;;-2.50;99.90;;;;;;5073406;28;20307;-83
2024/01/17 00:12:15;;;;;;;20.80;13.13;;;-2.60;99.90;;;;;;5075371;27;20218;-83
2024/01/17 00:14:43;;;;;;;22.07;14.00;;;-2.60;99.90;;;;;;5110787;27;20225;-84
2024/01/17 00:17:11;;;;;;;22.30;14.20;;;-2.60;99.90;;;;;;5077001;27;20693;-83
2024/01/17 00:19:38;;;;;;;22.37;13.57;;;-2.60;99.90;;;;;;5078238;27;20224;-83
2024/01/17 00:22:06;;;;;;;20.80;14.70;;;-2.60;99.90;;;;;;5081538;27;20224;-83
2024/01/17 00:24:32;;;;;;;22.57;14.23;;;-2.60;99.90;;;;;;5096182;28;20988;-83
2024/01/17 00:26:59;;;;;;;20.30;13.43;;;-2.60;99.90;;;;;;5098630;28;20220;-81
2024/01/17 00:29:26;;;;;;;24.73;14.97;;;-2.70;99.90;;;;;;5080349;27;20289;-82
2024/01/17 00:31:54;;;;;;;20.70;13.60;;;-2.70;99.90;;;;;;5101153;27;20221;-82
2024/01/17 00:34:21;;;;;;;18.77;13.37;;;-2.70;99.90;;;;;;5081762;27;20313;-82
2024/01/17 00:36:48;;;;;;;19.07;14.30;;;-2.70;99.90;;;;;;5079446;27;20258;-84
2024/01/17 00:39:16;;;;;;;19.20;13.17;;;-2.70;99.90;;;;;;5108776;27;20220;-83
2024/01/17 00:41:43;;;;;;;19.93;14.27;;;-2.70;99.90;;;;;;5073043;28;20324;-82
2024/01/17 00:44:14;;;;;;;20.27;13.40;;;-2.70;99.90;;;;;;5078481;28;20240;-83
2024/01/17 00:46:41;;;;;;;23.00;13.63;;;-2.70;99.90;;;;;;5082718;28;20221;-83
2024/01/17 00:49:09;;;;;;;23.27;13.57;;;-2.80;99.90;;;;;;5089227;28;20301;-83
2024/01/17 00:51:36;;;;;;;22.10;13.70;;;-2.80;99.90;;;;;;5077750;28;20217;-82
2024/01/17 00:54:03;;;;;;;23.17;13.83;;;-2.80;99.90;;;;;;5078015;28;20309;-82
2024/01/17 00:56:32;;;;;;;19.17;13.67;;;-2.80;99.90;;;;;;5078356;27;20323;-83
2024/01/17 00:58:58;;;;;;;20.93;14.03;;;-2.80;99.90;;;;;;5080806;27;20545;-83
2024/01/17 01:01:26;;;;;;;18.03;13.33;;;-2.80;99.90;;;;;;5076432;28;20700;-82
2024/01/17 01:03:52;;;;;;;20.43;14.07;;;-2.80;99.90;;;;;;5079732;28;20248;-82
2024/01/17 01:06:20;;;;;;;20.27;13.70;;;-2.80;99.90;;;;;;5087408;28;20307;-82
2024/01/17 01:08:47;;;;;;;19.80;13.50;;;-2.80;99.90;;;;;;5090430;28;20303;-84
2024/01/17 01:11:14;;;;;;;20.43;13.33;;;-2.90;99.90;;;;;;5072175;27;20794;-82
2024/01/17 01:13:40;;;;;;;21.70;13.50;;;-2.80;99.90;;;;;;5072106;28;20249;-83
2024/01/17 01:16:10;;;;;;;21.27;14.77;;;-2.90;99.90;;;;;;5077149;27;20769;-83
2024/01/17 01:18:37;;;;;;;21.87;13.90;;;-2.80;99.90;;;;;;5081405;28;20255;-83
2024/01/17 01:21:04;;;;;;;19.23;13.87;;;-2.80;99.90;;;;;;5073891;28;20295;-82
2024/01/17 01:23:32;;;;;;;23.13;13.60;;;-2.70;99.90;;;;;;5086620;28;20255;-83
2024/01/17 01:25:59;;;;;;;19.27;13.77;;;-2.70;99.90;;;;;;5070754;28;20302;-82
2024/01/17 01:28:26;;;;;;;17.53;13.30;;;-2.60;99.90;;;;;;5073997;28;20228;-82
2024/01/17 01:30:53;;;;;;;19.47;12.80;;;-2.60;99.90;;;;;;5069865;28;20230;-82
2024/01/17 01:33:20;;;;;;;20.93;13.53;;;-2.50;99.90;;;;;;5079713;28;20248;-83
2024/01/17 01:35:48;;;;;;;18.80;13.83;;;-2.40;99.90;;;;;;5104503;27;20309;-82
2024/01/17 01:38:15;;;;;;;18.83;12.77;;;-2.40;99.90;;;;;;5078026;27;20226;-83
2024/01/17 01:40:43;;;;;;;19.77;13.17;;;-2.30;99.90;;;;;;5078527;28;20264;-82
2024/01/17 01:43:21;;;;;;;20.40;13.37;;;-2.30;99.90;;;;;;5078688;27;20221;-82
2024/01/17 01:46:12;;;;;;;21.10;12.23;;;-2.20;99.90;;;;;;5086985;28;20286;-81
2024/01/17 01:48:40;;;;;;;23.10;12.50;;;-2.20;99.90;;;;;;5086514;27;20284;-82
2024/01/17 01:51:07;;;;;;;22.07;13.30;;;-2.10;99.90;;;;;;5083229;27;20302;-81
2024/01/17 01:53:35;;;;;;;16.17;12.37;;;-2.10;99.90;;;;;;5079085;27;20307;-83
2024/01/17 01:56:05;;;;;;;19.57;12.40;;;-2.10;99.90;;;;;;5079890;27;20214;-82
2024/01/17 01:58:34;;;;;;;17.57;11.60;;;-2.00;99.90;;;;;;5124340;27;20585;-83
2024/01/17 02:01:01;;;;;;;17.20;12.20;;;-2.00;99.90;;;;;;5089289;27;20226;-82
2024/01/17 02:03:30;;;;;;;19.83;12.33;;;-2.00;99.90;;;;;;5075463;28;20245;-81
2024/01/17 02:05:57;;;;;;;21.57;12.00;;;-2.00;99.90;;;;;;5076016;28;20221;-82
2024/01/17 02:08:24;;;;;;;17.50;12.90;;;-2.00;99.90;;;;;;5077537;28;20220;-83
2024/01/17 02:10:51;;;;;;;17.97;12.37;;;-2.00;99.90;;;;;;5078190;28;20222;-84
2024/01/17 02:13:19;;;;;;;18.40;12.43;;;-1.90;99.90;;;;;;5077274;28;20222;-83
2024/01/17 02:15:46;;;;;;;18.30;11.90;;;-1.90;99.90;;;;;;5079916;28;20225;-83
2024/01/17 02:18:13;;;;;;;21.07;12.87;;;-1.90;99.90;;;;;;5080956;28;20225;-82
2024/01/17 02:20:40;;;;;;;17.30;12.63;;;-1.90;99.90;;;;;;5078520;28;20222;-83
2024/01/17 02:23:22;;;;;;;17.67;12.00;;;-1.90;99.90;;;;;;5075321;28;20286;-83
2024/01/17 02:25:51;;;;;;;17.20;11.30;;;-1.90;99.90;;;;;;5078627;28;20314;-83
2024/01/17 02:28:18;;;;;;;19.90;12.23;;;-1.90;99.90;;;;;;5083186;28;20236;-83
2024/01/17 02:30:46;;;;;;;18.00;11.20;;;-1.90;99.90;;;;;;5104668;27;20223;-82
2024/01/17 02:33:13;;;;;;;21.73;13.17;;;-1.90;99.90;;;;;;5083299;27;20220;-82
2024/01/17 02:35:40;;;;;;;19.83;12.40;;;-1.80;99.90;;;;;;5087263;28;20237;-84
2024/01/17 02:41:33;;;;;;;17.20;11.80;;;-1.80;99.90;;;;;;5077867;28;20221;-84
2024/01/17 02:44:00;;;;;;;18.77;12.07;;;-1.80;99.90;;;;;;5078670;28;20230;-83
2024/01/17 02:46:29;;;;;;;17.57;11.60;;;-1.90;99.90;;;;;;5086236;27;20229;-83
2024/01/17 02:48:56;;;;;;;17.80;11.13;;;-1.90;99.90;;;;;;5066979;28;20224;-84
2024/01/17 02:51:23;;;;;;;16.67;11.53;;;-1.90;99.90;;;;;;5073592;28;20225;-84
2024/01/17 02:53:49;;;;;;;17.40;12.23;;;-1.90;99.90;;;;;;5080989;28;20229;-82
2024/01/17 02:56:17;;;;;;;18.43;12.13;;;-2.00;99.90;;;;;;5077455;28;20718;-84
2024/01/17 02:58:46;;;;;;;16.73;11.80;;;-2.00;99.90;;;;;;5072404;28;20224;-84
2024/01/17 03:01:16;;;;;;;18.00;12.53;;;-2.00;99.90;;;;;;5083275;28;20221;-82
2024/01/17 03:03:43;;;;;;;19.20;11.60;;;-2.10;99.90;;;;;;5088409;28;20286;-82
2024/01/17 03:06:10;;;;;;;18.83;11.77;;;-2.10;99.90;;;;;;5097002;27;20229;-83
2024/01/17 03:08:37;;;;;;;17.63;11.80;;;-2.10;99.90;;;;;;5074640;28;20221;-82
2024/01/17 03:11:04;;;;;;;16.27;11.77;;;-2.10;99.90;;;;;;5073862;27;20764;-82
2024/01/17 03:13:31;;;;;;;17.83;11.50;;;-2.20;99.90;;;;;;5080538;28;20229;-80
2024/01/17 03:15:59;;;;;;;17.80;11.87;;;-2.20;99.90;;;;;;5085019;28;20260;-82
2024/01/17 03:18:26;;;;;;;18.20;11.23;;;-2.20;99.90;;;;;;5078253;27;20337;-81
2024/01/17 03:20:53;;;;;;;22.37;12.57;;;-2.20;99.90;;;;;;5075624;27;20227;-81
2024/01/17 03:23:20;;;;;;;16.70;11.57;;;-2.20;99.90;;;;;;5080900;27;20237;-82
2024/01/17 03:25:46;;;;;;;18.07;11.20;;;-2.20;99.90;;;;;;5077474;28;20744;-82
2024/01/17 03:28:13;;;;;;;16.90;12.33;;;-2.30;99.90;;;;;;5075826;28;20230;-82
2024/01/17 03:30:41;;;;;;;19.43;11.63;;;-2.30;99.90;;;;;;5074516;28;20226;-82
2024/01/17 03:33:09;;;;;;;19.50;12.90;;;-2.30;99.90;;;;;;5074069;27;20984;-83
2024/01/17 03:35:36;;;;;;;17.93;11.50;;;-2.40;99.90;;;;;;5075597;28;20266;-83
2024/01/17 03:38:04;;;;;;;18.13;12.27;;;-2.50;99.90;;;;;;5081797;28;20700;-83
2024/01/17 03:40:32;;;;;;;18.07;12.50;;;-2.40;99.90;;;;;;5080914;28;20314;-83
2024/01/17 03:42:59;;;;;;;17.93;11.93;;;-2.40;99.90;;;;;;5092404;27;20792;-81
2024/01/17 03:45:26;;;;;;;17.17;11.80;;;-2.40;99.90;;;;;;5072564;28;20226;-83
2024/01/17 03:47:54;;;;;;;16.27;11.80;;;-2.40;99.90;;;;;;5103352;27;20871;-81
2024/01/17 03:50:24;;;;;;;19.03;10.97;;;-2.40;99.90;;;;;;5096537;28;20341;-82
2024/01/17 03:52:50;;;;;;;20.23;11.10;;;-2.40;99.90;;;;;;5094661;27;20776;-83
2024/01/17 03:55:17;;;;;;;19.40;11.60;;;-2.40;99.90;;;;;;5107212;27;20215;-83
2024/01/17 03:57:45;;;;;;;18.00;11.10;;;-2.50;99.90;;;;;;5077367;28;20246;-83
2024/01/17 04:00:12;;;;;;;16.40;10.93;;;-2.50;99.90;;;;;;5069971;28;20222;-83
2024/01/17 04:02:39;;;;;;;18.33;10.93;;;-2.50;99.90;;;;;;5093468;27;20257;-81
2024/01/17 04:05:07;;;;;;;21.77;11.90;;;-2.50;99.90;;;;;;5064968;27;20235;-82
2024/01/17 04:07:36;;;;;;;17.73;10.70;;;-2.60;99.90;;;;;;5074706;28;20566;-83
2024/01/17 04:10:04;;;;;;;18.27;11.60;;;-2.60;99.90;;;;;;5074208;27;20242;-81
2024/01/17 04:12:31;;;;;;;20.40;10.73;;;-2.60;99.90;;;;;;5077780;28;20234;-82
2024/01/17 04:14:58;;;;;;;17.77;10.53;;;-2.60;99.90;;;;;;5091134;27;20286;-83
2024/01/17 04:17:25;;;;;;;15.77;10.70;;;-2.60;99.90;;;;;;5098290;27;20243;-82
2024/01/17 04:19:52;;;;;;;17.93;11.27;;;-2.60;99.90;;;;;;5077972;28;20320;-83
2024/01/17 04:22:19;;;;;;;17.80;10.67;;;-2.70;99.90;;;;;;5072948;27;20230;-84
2024/01/17 04:24:48;;;;;;;19.80;11.13;;;-2.80;99.90;;;;;;5075201;28;20225;-84
2024/01/17 04:27:15;;;;;;;20.80;10.20;;;-2.80;99.90;;;;;;5082263;27;20231;-84
2024/01/17 04:29:42;;;;;;;15.13;10.60;;;-2.80;99.90;;;;;;5069422;28;20220;-84
2024/01/17 04:32:09;;;;;;;18.63;10.80;;;-2.80;99.90;;;;;;5078706;28;20222;-83
2024/01/17 04:34:36;;;;;;;17.27;11.10;;;-2.80;99.90;;;;;;5089609;28;20299;-84
2024/01/17 04:37:03;;;;;;;16.87;11.03;;;-2.90;99.90;;;;;;5073794;28;20225;-85
2024/01/17 04:39:29;;;;;;;17.90;11.73;;;-2.90;99.90;;;;;;5074397;28;20278;-84
2024/01/17 04:42:00;;;;;;;17.70;10.93;;;-2.90;99.90;;;;;;5078261;28;20230;-85
2024/01/17 04:44:30;;;;;;;17.83;11.03;;;-2.80;99.90;;;;;;5083595;28;20234;-86
2024/01/17 04:46:57;;;;;;;15.70;10.00;;;-2.90;99.90;;;;;;5074540;28;20232;-85
2024/01/17 04:49:26;;;;;;;16.07;10.33;;;-2.90;99.90;;;;;;5078829;28;20317;-87
2024/01/17 04:51:53;;;;;;;19.90;11.20;;;-2.90;99.90;;;;;;5116909;27;20709;-84
2024/01/17 04:54:20;;;;;;;18.13;10.60;;;-3.00;99.90;;;;;;5095960;27;20248;-85
2024/01/17 04:56:47;;;;;;;17.43;10.90;;;-3.00;99.90;;;;;;5075821;28;20645;-84
2024/01/17 04:59:16;;;;;;;16.27;10.50;;;-3.00;99.90;;;;;;5073009;28;20601;-88
2024/01/17 05:01:43;;;;;;;18.33;10.77;;;-3.00;99.90;;;;;;5084617;28;20244;-84
2024/01/17 05:04:10;;;;;;;16.47;10.07;;;-3.00;99.90;;;;;;5075486;28;20689;-85
2024/01/17 05:06:36;;;;;;;17.20;10.13;;;-3.00;99.90;;;;;;5078298;28;20275;-87
2024/01/17 05:09:07;;;;;;;16.40;10.43;;;-3.00;99.90;;;;;;5093438;28;20233;-83
2024/01/17 05:11:34;;;;;;;19.27;10.10;;;-3.00;99.90;;;;;;5105015;27;20747;-90
2024/01/17 05:14:01;;;;;;;18.77;9.77;;;-3.10;99.90;;;;;;5081702;28;20225;-86
2024/01/17 05:16:29;;;;;;;17.73;10.10;;;-3.00;99.90;;;;;;5070941;28;20225;-85
2024/01/17 05:18:56;;;;;;;14.40;9.43;;;-3.00;99.90;;;;;;5064868;28;20818;-84
2024/01/17 05:21:23;;;;;;;21.17;10.80;;;-2.90;99.90;;;;;;5063366;28;20226;-83
2024/01/17 05:23:50;;;;;;;18.63;10.03;;;-2.90;99.90;;;;;;5067449;28;20244;-83
2024/01/17 05:26:17;;;;;;;16.67;9.83;;;-2.90;99.90;;;;;;5083564;27;20245;-83
2024/01/17 05:28:44;;;;;;;16.70;10.30;;;-2.90;99.90;;;;;;5071500;28;20233;-83
2024/01/17 05:31:11;;;;;;;15.27;10.03;;;-2.90;99.90;;;;;;5083006;28;20232;-83
2024/01/17 05:33:39;;;;;;;18.83;10.67;;;-2.90;99.90;;;;;;5073059;28;20647;-85
2024/01/17 05:36:07;;;;;;;14.10;10.00;;;-2.90;99.90;;;;;;5083846;27;20239;-85
2024/01/17 05:38:34;;;;;;;17.90;9.93;;;-2.90;99.90;;;;;;5076265;27;20317;-84
2024/01/17 05:41:01;;;;;;;16.53;10.07;;;-2.90;99.90;;;;;;5087505;28;20680;-84
2024/01/17 05:43:28;;;;;;;14.50;9.53;;;-2.80;99.90;;;;;;5076699;28;20229;-85
2024/01/17 05:45:57;;;;;;;16.00;10.20;;;-2.80;99.90;;;;;;5073639;28;20241;-85
2024/01/17 05:48:24;;;;;;;15.83;10.40;;;-2.80;99.90;;;;;;5077156;28;20925;-85
2024/01/17 05:50:52;;;;;;;15.03;10.50;;;-2.80;99.90;;;;;;5072583;28;20253;-86
2024/01/17 05:53:19;;;;;;;17.20;10.77;;;-2.70;99.90;;;;;;5086928;28;20254;-83
2024/01/17 05:55:46;;;;;;;19.33;10.70;;;-2.70;99.90;;;;;;5077553;28;20230;-81
2024/01/17 05:58:13;;;;;;;18.40;11.00;;;-2.70;99.90;;;;;;5080058;28;20248;-84
2024/01/17 06:00:40;;;;;;;12.67;9.40;;;-2.70;99.90;;;;;;5087106;28;20282;-83
2024/01/17 06:03:07;;;;;;;18.13;10.20;;;-2.60;99.90;;;;;;5086645;27;20226;-83
2024/01/17 06:05:34;;;;;;;15.27;10.00;;;-2.60;99.90;;;;;;5083434;27;20290;-84
2024/01/17 06:08:02;;;;;;;13.80;9.50;;;-2.60;99.90;;;;;;5080213;28;20229;-85
2024/01/17 06:10:29;;;;;;;27.13;11.37;;;-2.60;99.90;;;;;;5086651;27;20225;-84
2024/01/17 06:12:56;;;;;;;15.13;10.07;;;-2.50;99.90;;;;;;5085953;27;20701;-83
2024/01/17 06:15:23;;;;;;;13.60;9.67;;;-2.50;99.90;;;;;;5083052;27;20229;-84
2024/01/17 06:17:50;;;;;;;15.50;9.60;;;-2.50;99.90;;;;;;5079235;28;20236;-84
2024/01/17 06:20:17;;;;;;;15.87;9.73;;;-2.40;99.90;;;;;;5085925;28;20620;-84
2024/01/17 06:22:44;;;;;;;16.03;10.33;;;-2.40;99.90;;;;;;5079371;28;20239;-84
2024/01/17 06:25:14;;;;;;;16.43;9.67;;;-2.40;99.90;;;;;;5079360;28;20226;-83
2024/01/17 06:27:41;;;;;;;16.53;9.17;;;-2.40;99.90;;;;;;5104837;27;20222;-84
2024/01/17 06:30:09;;;;;;;16.70;10.40;;;-2.40;99.90;;;;;;5081006;28;20280;-84
2024/01/17 06:32:36;;;;;;;12.60;9.27;;;-2.30;99.90;;;;;;5089079;27;20229;-84
2024/01/17 06:35:03;;;;;;;17.73;9.80;;;-2.30;99.90;;;;;;5105300;28;20229;-84
2024/01/17 06:37:31;;;;;;;14.93;9.73;;;-2.30;99.90;;;;;;5095890;28;20232;-83
2024/01/17 06:39:58;;;;;;;14.47;9.27;;;-2.30;99.90;;;;;;5083089;28;20228;-83
2024/01/17 06:42:26;;;;;;;16.07;8.97;;;-2.20;99.90;;;;;;5082976;27;20317;-85
2024/01/17 06:44:53;;;;;;;13.77;8.73;;;-2.30;99.90;;;;;;5113629;27;20216;-84
2024/01/17 06:47:22;;;;;;;15.20;8.97;;;-2.30;99.90;;;;;;5077243;28;20222;-83
2024/01/17 06:49:50;;;;;;;14.93;9.10;;;-2.30;99.90;;;;;;5080437;28;20233;-83
2024/01/17 06:52:17;;;;;;;14.67;8.80;;;-2.20;99.90;;;;;;5106935;27;20233;-84
2024/01/17 06:54:44;;;;;;;14.27;8.90;;;-2.20;99.90;;;;;;5091249;28;20228;-84
2024/01/17 06:57:11;;;;;;;15.40;8.80;;;-2.30;99.90;;;;;;5081644;28;20224;-84
2024/01/17 06:59:39;;;;;;;15.40;8.80;;;-2.20;99.90;;;;;;5079577;28;20225;-83
2024/01/17 07:02:06;;;;;;;16.13;8.90;;;-2.20;99.90;;;;;;5095150;27;20232;-84
2024/01/17 07:04:33;;;;;;;12.93;9.17;;;-2.30;99.90;;;;;;5072317;28;20291;-83
2024/01/17 07:07:00;;;;;;;14.93;8.70;;;-2.20;99.90;;;;;;5077652;28;20280;-83
2024/01/17 07:09:27;;;;;;;11.30;8.03;;;-2.20;99.90;;;;;;5081896;28;20234;-84
2024/01/17 07:11:53;;;;;;;12.33;8.80;;;-2.20;99.90;;;;;;5088344;27;20894;-83
2024/01/17 07:14:20;;;;;;;12.87;7.90;;;-2.20;99.90;;;;;;5074137;28;20234;-83
2024/01/17 07:16:49;;;;;;;17.97;8.70;;;-2.20;99.90;;;;;;5077517;28;20228;-85
2024/01/17 07:19:15;;;;;;;11.30;7.40;;;-2.20;99.90;;;;;;5084015;28;20793;-84
2024/01/17 07:21:43;;;;;;;11.97;8.20;;;-2.30;99.90;;;;;;5109036;27;20226;-84
2024/01/17 07:24:10;;;;;;;13.90;7.80;;;-2.30;99.90;;;;;;5118322;27;20317;-84
2024/01/17 07:26:38;;;;;;;13.27;8.27;;;-2.20;99.90;;;;;;5101367;27;20230;-84
2024/01/17 07:29:05;;;;;;;11.00;6.87;;;-2.20;99.90;;;;;;5080542;27;20288;-83
2024/01/17 07:31:31;;;;;;;12.17;7.53;;;-2.20;99.90;;;;;;5077461;28;20240;-83
2024/01/17 07:34:00;;;;;;;12.10;7.30;;;-2.20;99.90;;;;;;5080513;28;20314;-83
2024/01/17 07:36:26;;;;;;;12.83;7.37;;;-2.20;99.90;;;;;;5081782;27;20688;-83
2024/01/17 07:38:53;;;;;;;11.90;6.97;;;-2.20;99.90;;;;;;5080340;28;20700;-83
2024/01/17 07:41:20;;;;;;;11.63;7.50;;;-2.20;99.90;;;;;;5079068;27;20249;-84
2024/01/17 07:43:47;;;;;;;12.10;6.60;;;-2.20;99.90;;;;;;5115986;27;21073;-84
2024/01/17 07:46:14;;;;;;;11.37;7.00;;;-2.20;99.90;;;;;;5104417;27;20233;-82
2024/01/17 07:48:41;;;;;;;9.93;6.40;;;-2.20;99.90;;;;;;5088080;28;20232;-82
2024/01/17 07:51:09;;;;;;;10.20;6.27;;;-2.20;99.90;;;;;;5110115;27;20222;-82
2024/01/17 07:53:36;;;;;;;9.87;6.37;;;-2.20;99.90;;;;;;5113313;27;20619;-82
2024/01/17 07:56:04;;;;;;;13.27;6.77;;;-2.20;99.90;;;;;;5125690;27;20221;-82
2024/01/17 07:58:31;;;;;;;15.63;8.30;;;-2.20;99.90;;;;;;5102538;28;20593;-82
2024/01/17 08:00:58;;;;;;;11.60;6.00;;;-2.20;99.90;;;;;;5087998;28;20228;-82
2024/01/17 08:03:25;;;;;;;14.10;6.60;;;-2.20;99.90;;;;;;5078953;28;20296;-82
2024/01/17 08:05:52;;;;;;;11.63;6.37;;;-2.20;99.90;;;;;;5100394;27;20279;-82
2024/01/17 08:08:21;;;;;;;11.93;6.60;;;-2.20;99.90;;;;;;5077098;28;20222;-81
2024/01/17 08:10:47;;;;;;;10.73;6.13;;;-2.20;99.90;;;;;;5080207;28;20227;-82
2024/01/17 08:13:14;;;;;;;9.30;5.97;;;-2.10;99.90;;;;;;5078513;27;20231;-82
2024/01/17 08:15:43;;;;;;;10.53;6.43;;;-2.10;99.90;;;;;;5090723;28;20234;-82
2024/01/17 08:18:09;;;;;;;10.03;5.77;;;-2.10;99.90;;;;;;5080478;27;20582;-82
2024/01/17 08:20:36;;;;;;;10.97;6.03;;;-2.10;99.90;;;;;;5103603;28;20224;-82
2024/01/17 08:23:04;;;;;;;9.93;5.73;;;-2.10;99.90;;;;;;5081085;28;20928;-81
2024/01/17 08:25:33;;;;;;;8.70;5.70;;;-2.10;99.90;;;;;;5113891;27;20233;-82
2024/01/17 08:28:00;;;;;;;10.60;5.70;;;-2.00;99.90;;;;;;5115216;27;20221;-82
2024/01/17 08:30:27;;;;;;;11.70;5.90;;;-2.00;99.90;;;;;;5125593;27;20220;-83
2024/01/17 08:32:55;;;;;;;10.03;5.67;;;-2.00;99.90;;;;;;5086782;27;20225;-82
2024/01/17 08:35:22;;;;;;;12.20;5.77;;;-2.00;99.90;;;;;;5080092;27;20906;-82
2024/01/17 08:37:49;;;;;;;8.87;5.30;;;-1.90;99.90;;;;;;5083305;28;20256;-82
2024/01/17 08:40:16;;;;;;;10.47;5.33;;;-1.90;99.90;;;;;;5092669;28;20294;-82
2024/01/17 08:42:45;;;;;;;9.57;5.97;;;-1.90;99.90;;;;;;5090492;27;20871;-82
2024/01/17 08:45:14;;;;;;;10.77;5.70;;;-1.90;99.90;;;;;;5086901;28;20269;-82
2024/01/17 08:47:42;;;;;;;8.77;5.10;;;-1.80;99.90;;;;;;5081032;28;20232;-82
2024/01/17 08:50:10;;;;;;;11.83;5.70;;;-1.80;99.90;;;;;;5104094;27;20229;-82
2024/01/17 08:52:36;;;;;;;9.07;5.23;;;-1.70;99.90;;;;;;5076926;28;20238;-82
2024/01/17 08:55:08;;;;;;;8.97;4.73;;;-1.70;99.90;;;;;;5079464;28;20260;-82
2024/01/17 08:57:36;;;;;;;9.77;4.80;;;-1.70;99.90;;;;;;5078734;28;20700;-82
2024/01/17 09:00:06;;;;;;;10.63;5.47;;;-1.60;99.90;;;;;;5081728;28;20240;-82
2024/01/17 09:02:33;;;;;;;8.50;4.77;;;-1.60;99.90;;;;;;5080898;27;20231;-82
2024/01/17 09:05:00;;;;;;;9.37;5.00;;;-1.50;99.90;;;;;;5111493;27;20328;-82
2024/01/17 09:07:27;;;;;;;10.33;5.20;;;-1.50;99.90;;;;;;5074797;27;20286;-82
2024/01/17 09:09:54;;;;;;;8.63;5.53;;;-1.40;99.90;;;;;;5081628;27;20584;-82
2024/01/17 09:12:21;;;;;;;9.80;5.27;;;-1.40;99.90;;;;;;5079497;28;20236;-82
2024/01/17 09:14:47;;;;;;;10.57;5.60;;;-1.40;99.90;;;;;;5111939;27;20818;-82
2024/01/17 09:17:15;;;;;;;6.80;4.83;;;-1.40;99.90;;;;;;5085888;28;20225;-82
2024/01/17 09:19:43;;;;;;;11.53;5.87;;;-1.30;99.90;;;;;;5083600;28;20282;-82
2024/01/17 09:22:10;;;;;;;11.73;5.50;;;-1.30;99.90;;;;;;5084399;27;20223;-82
2024/01/17 09:24:39;;;;;;;9.07;5.27;;;-1.30;99.90;;;;;;5078224;28;20599;-82
2024/01/17 09:27:05;;;;;;;10.83;5.20;;;-1.20;99.90;;;;;;5077856;28;20225;-82
2024/01/17 09:29:34;;;;;;;7.93;5.27;;;-1.20;99.90;;;;;;5078625;28;20905;-82
2024/01/17 09:32:01;;;;;;;8.43;5.10;;;-1.10;99.90;;;;;;5081197;28;20226;-82
2024/01/17 09:34:29;;;;;;;11.60;5.33;;;-1.10;99.90;;;;;;5081019;28;20246;-82
2024/01/17 09:36:56;;;;;;;7.50;5.20;;;-1.10;99.90;;;;;;5109223;27;20227;-81
2024/01/17 09:39:23;;;;;;;10.70;5.60;;;-1.00;99.90;;;;;;5090041;27;20270;-82
2024/01/17 09:41:50;;;;;;;9.87;5.50;;;-1.00;99.90;;;;;;5081066;28;20229;-82
2024/01/17 09:44:17;;;;;;;10.33;5.90;;;-1.00;99.90;;;;;;5091892;27;20244;-82
2024/01/17 09:46:45;;;;;;;9.50;5.20;;;-1.00;99.90;;;;;;5075045;28;20227;-82
2024/01/17 09:49:12;;;;;;;12.13;5.37;;;-0.90;99.90;;;;;;5081589;28;20260;-82
2024/01/17 09:51:41;;;;;;;12.77;5.90;;;-0.90;99.90;;;;;;5087161;28;20228;-84
2024/01/17 09:54:08;;;;;;;11.33;5.57;;;-0.90;99.90;;;;;;5075189;27;20277;-85
2024/01/17 09:56:38;;;;;;;11.00;5.80;;;-0.80;99.90;;;;;;5088579;28;20295;-84
2024/01/17 09:59:13;;;;;;;10.10;5.00;;;-0.80;99.90;;;;;;5081379;28;20223;-85
2024/01/17 10:01:43;;;;;;;7.73;5.20;;;-0.80;99.90;;;;;;5120268;27;20253;-84
2024/01/17 10:04:12;;;;;;;8.83;5.97;;;-0.80;99.90;;;;;;5074907;28;20586;-84
2024/01/17 10:06:43;;;;;;;10.17;5.33;;;-0.70;99.90;;;;;;5078731;28;20294;-84
2024/01/17 10:09:10;;;;;;;10.17;6.50;;;-0.70;99.90;;;;;;5072319;28;20588;-84
2024/01/17 10:11:38;;;;;;;10.23;5.40;;;-0.70;99.90;;;;;;5078516;28;20230;-84
2024/01/17 10:14:05;;;;;;;11.20;5.13;;;-0.70;99.90;;;;;;5105724;27;20230;-84
2024/01/17 10:16:32;;;;;;;10.90;5.43;;;-0.60;99.90;;;;;;5090699;28;20267;-84
2024/01/17 10:19:00;;;;;;;11.17;5.77;;;-0.60;99.90;;;;;;5080015;28;20233;-84
2024/01/17 10:21:27;;;;;;;9.30;5.47;;;-0.60;99.90;;;;;;5084764;27;20245;-84
2024/01/17 10:23:55;;;;;;;12.93;5.13;;;-0.50;99.90;;;;;;5071867;28;20763;-85
2024/01/17 10:26:22;;;;;;;12.17;5.87;;;-0.50;99.90;;;;;;5077623;27;20229;-84
2024/01/17 10:28:49;;;;;;;9.93;5.23;;;-0.50;99.90;;;;;;5093345;28;20247;-84
2024/01/17 10:31:16;;;;;;;12.53;5.73;;;-0.50;99.90;;;;;;5096360;27;20231;-85
2024/01/17 10:33:43;;;;;;;11.07;5.60;;;-0.40;99.90;;;;;;5075187;28;20234;-84
2024/01/17 10:36:13;;;;;;;8.60;5.00;;;-0.40;99.90;;;;;;5080534;27;20227;-85
2024/01/17 10:38:40;;;;;;;10.40;6.00;;;-0.40;99.90;;;;;;5091526;28;20713;-84
2024/01/17 10:41:09;;;;;;;8.43;5.67;;;-0.40;99.90;;;;;;5115938;27;20462;-85
2024/01/17 10:43:53;;;;;;;9.63;5.73;;;-0.40;99.90;;;;;;5103219;27;20301;-85
2024/01/17 10:46:20;;;;;;;9.73;5.47;;;-0.40;99.90;;;;;;5092092;28;20224;-85
2024/01/17 10:48:47;;;;;;;8.70;5.47;;;-0.30;99.90;;;;;;5082928;27;20761;-85
2024/01/17 10:51:20;;;;;;;8.67;5.60;;;-0.30;99.90;;;;;;5083308;28;20226;-84
2024/01/17 10:53:49;;;;;;;8.23;5.03;;;-0.30;99.90;;;;;;5078834;28;20287;-85
2024/01/17 10:56:19;;;;;;;11.40;5.73;;;-0.30;99.90;;;;;;5081615;27;20234;-84
2024/01/17 10:58:50;;;;;;;9.40;5.90;;;-0.30;99.90;;;;;;5082318;28;20330;-84
2024/01/17 11:01:20;;;;;;;9.37;6.00;;;-0.30;99.90;;;;;;5090066;27;20279;-84
2024/01/17 11:03:48;;;;;;;9.93;6.00;;;-0.20;99.90;;;;;;5085905;27;20231;-85
2024/01/17 11:06:16;;;;;;;10.27;5.80;;;-0.20;99.90;;;;;;5077560;28;20363;-85
2024/01/17 11:08:44;;;;;;;13.60;5.90;;;-0.20;99.90;;;;;;5083514;27;20275;-85
2024/01/17 11:11:11;;;;;;;9.87;5.97;;;-0.20;99.90;;;;;;5081883;28;20222;-86
2024/01/17 11:13:43;;;;;;;13.20;6.40;;;-0.20;99.90;;;;;;5082392;28;20602;-85
2024/01/17 11:16:12;;;;;;;9.63;5.67;;;-0.20;99.90;;;;;;5077928;27;20581;-85
2024/01/17 11:18:40;;;;;;;9.83;5.73;;;-0.20;99.90;;;;;;5082225;27;20230;-84
2024/01/17 11:21:08;;;;;;;12.70;7.10;;;-0.20;99.90;;;;;;5093660;27;20248;-85
2024/01/17 11:23:42;;;;;;;11.17;6.20;;;-0.20;99.90;;;;;;5077473;28;20325;-85
2024/01/17 11:26:18;;;;;;;10.43;6.33;;;-0.20;99.90;;;;;;5073001;28;20276;-84
2024/01/17 11:29:02;;;;;;;9.67;6.03;;;-0.20;99.90;;;;;;5093260;27;20221;-85
2024/01/17 11:31:39;;;;;;;9.17;6.00;;;-0.10;99.90;;;;;;5104195;27;20316;-85
2024/01/17 11:34:07;;;;;;;11.03;7.00;;;-0.10;99.90;;;;;;5075115;27;20227;-85
2024/01/17 11:36:41;;;;;;;9.97;6.53;;;-0.10;99.90;;;;;;5079707;28;20226;-85
2024/01/17 11:39:09;;;;;;;11.00;6.47;;;-0.10;99.90;;;;;;5075365;27;20582;-85
2024/01/17 11:41:38;;;;;;;14.80;6.77;;;0.00;99.90;;;;;;5077714;28;20251;-85
2024/01/17 11:44:07;;;;;;;13.27;6.27;;;0.00;99.90;;;;;;5085813;28;20255;-85
2024/01/17 11:46:35;;;;;;;9.63;5.97;;;0.10;99.90;;;;;;5083973;28;20241;-85
2024/01/17 11:49:02;;;;;;;10.73;6.50;;;0.10;99.90;;;;;;5106627;27;20224;-86
2024/01/17 11:51:29;;;;;;;10.20;6.37;;;0.10;99.90;;;;;;5086460;28;20689;-86
2024/01/17 11:53:56;;;;;;;9.93;6.63;;;0.20;99.90;;;;;;5079934;27;20230;-85
2024/01/17 11:56:27;;;;;;;9.77;6.50;;;0.20;99.90;;;;;;5074270;28;20233;-85
2024/01/17 11:59:04;;;;;;;11.27;6.43;;;0.20;99.90;;;;;;5076730;28;20649;-85
2024/01/17 12:01:52;;;;;;;12.57;7.20;;;0.20;99.90;;;;;;5073658;28;20338;-88
2024/01/17 12:04:21;;;;;;;10.10;6.63;;;0.20;99.90;;;;;;5074069;28;20250;-88
2024/01/17 12:06:49;;;;;;;10.73;6.50;;;0.30;99.90;;;;;;5083154;28;20250;-87
2024/01/17 12:09:18;;;;;;;10.93;6.67;;;0.30;99.90;;;;;;5075717;28;20740;-88
2024/01/17 12:11:46;;;;;;;10.23;6.80;;;0.30;99.90;;;;;;5083189;28;20221;-87
2024/01/17 12:14:13;;;;;;;12.90;6.73;;;0.30;99.90;;;;;;5081067;28;20223;-88
2024/01/17 12:16:40;;;;;;;11.67;6.73;;;0.30;99.90;;;;;;5077363;28;20233;-87
2024/01/17 12:19:10;;;;;;;9.10;6.67;;;0.30;99.90;;;;;;5076833;28;20227;-85
2024/01/17 12:21:37;;;;;;;11.77;6.97;;;0.30;99.90;;;;;;5075508;28;20226;-84
2024/01/17 12:24:04;;;;;;;9.07;6.90;;;0.30;99.90;;;;;;5124504;27;20248;-83
2024/01/17 12:26:34;;;;;;;12.13;7.40;;;0.30;99.90;;;;;;5102320;27;20233;-85
2024/01/17 12:29:08;;;;;;;10.00;7.03;;;0.40;99.90;;;;;;5110227;27;20697;-84
2024/01/17 12:31:35;;;;;;;13.67;7.20;;;0.40;99.90;;;;;;5078158;27;20233;-84
2024/01/17 12:34:02;;;;;;;10.97;7.17;;;0.40;99.90;;;;;;5121632;27;20226;-85
2024/01/17 12:36:31;;;;;;;10.40;6.77;;;0.40;99.90;;;;;;5083077;28;20223;-85
2024/01/17 12:39:02;;;;;;;10.43;6.80;;;0.40;99.90;;;;;;5078999;28;20627;-85
2024/01/17 12:41:29;;;;;;;9.30;5.97;;;0.40;99.90;;;;;;5075528;28;20445;-85
2024/01/17 12:43:56;;;;;;;11.13;7.30;;;0.40;99.90;;;;;;5075447;28;20223;-87